createdAt,value
2019-02-27T00:00:29.072Z,13.90
2019-02-27T00:02:57.935Z,14.53
2019-02-27T00:05:29.797Z,14.73
2019-02-27T00:07:58.500Z,13.30
2019-02-27T00:10:27.151Z,14.23
2019-02-27T00:12:55.838Z,15.30
2019-02-27T00:15:24.530Z,13.60
2019-02-27T00:17:53.258Z,14.33
2019-02-27T00:20:22.013Z,15.83
2019-02-27T00:22:51.567Z,15.80
2019-02-27T00:25:20.483Z,15.07
2019-02-27T00:27:49.919Z,16.17
2019-02-27T00:30:18.626Z,15.60
2019-02-27T00:32:50.926Z,14.37
2019-02-27T00:35:17.642Z,14.70
2019-02-27T00:37:46.359Z,15.37
2019-02-27T00:40:15.124Z,15.27
2019-02-27T00:42:45.992Z,14.27
2019-02-27T00:45:14.717Z,14.90
2019-02-27T00:47:43.371Z,16.17
2019-02-27T00:50:12.098Z,15.60
2019-02-27T00:52:40.790Z,13.87
2019-02-27T00:55:10.078Z,15.80
2019-02-27T00:57:38.817Z,15.00
2019-02-27T01:00:14.282Z,16.00
2019-02-27T01:02:42.938Z,14.70
2019-02-27T01:05:11.698Z,14.60
2019-02-27T01:07:40.442Z,14.17
2019-02-27T01:10:12.995Z,14.30
2019-02-27T01:12:41.892Z,16.43
2019-02-27T01:15:14.267Z,16.10
2019-02-27T01:17:43.283Z,17.23
2019-02-27T01:20:18.304Z,15.80
2019-02-27T01:22:47.022Z,16.83
2019-02-27T01:25:15.989Z,15.97
2019-02-27T01:27:44.578Z,15.63
2019-02-27T01:30:17.429Z,15.47
2019-02-27T01:32:46.124Z,17.03
2019-02-27T01:35:18.118Z,22.40
2019-02-27T01:37:45.498Z,22.27
2019-02-27T01:40:17.931Z,21.63
2019-02-27T01:42:45.613Z,21.53
2019-02-27T01:45:20.825Z,19.83
2019-02-27T01:47:46.529Z,23.00
2019-02-27T01:50:32.551Z,22.30
2019-02-27T01:53:01.278Z,23.40
2019-02-27T01:55:29.940Z,24.30
2019-02-27T01:57:58.551Z,24.23
2019-02-27T02:00:27.255Z,18.87
2019-02-27T02:02:55.918Z,17.47
2019-02-27T02:05:27.201Z,17.43
2019-02-27T02:07:56.117Z,16.47
2019-02-27T02:10:28.045Z,16.53
2019-02-27T02:12:58.589Z,17.10
2019-02-27T02:15:36.181Z,15.53
2019-02-27T02:18:22.922Z,16.60
2019-02-27T02:21:09.634Z,17.37
2019-02-27T02:23:52.918Z,14.20
2019-02-27T02:26:43.109Z,15.07
2019-02-27T02:29:21.025Z,17.20
2019-02-27T02:32:01.998Z,17.13
2019-02-27T02:34:40.094Z,17.97
2019-02-27T02:37:30.306Z,19.23
2019-02-27T02:40:16.616Z,19.47
2019-02-27T02:43:10.694Z,21.27
2019-02-27T02:46:08.650Z,19.47
2019-02-27T02:48:42.677Z,20.80
2019-02-27T02:51:41.811Z,18.73
2019-02-27T02:54:16.433Z,14.87
2019-02-27T02:56:50.625Z,18.73
2019-02-27T02:59:59.421Z,19.87
2019-02-27T03:02:43.773Z,19.63
2019-02-27T03:05:31.999Z,20.70
2019-02-27T03:08:06.899Z,17.47
2019-02-27T03:10:43.072Z,20.87
2019-02-27T03:13:23.841Z,17.53
2019-02-27T03:16:04.103Z,17.30
2019-02-27T03:18:40.106Z,16.07
2019-02-27T03:21:28.560Z,16.93
2019-02-27T03:24:20.831Z,18.17
2019-02-27T03:27:04.018Z,18.77
2019-02-27T03:29:53.510Z,18.50
2019-02-27T03:32:48.222Z,16.40
2019-02-27T03:35:42.060Z,16.10
2019-02-27T03:38:39.148Z,18.00
2019-02-27T03:41:28.735Z,15.30
2019-02-27T03:44:09.011Z,17.23
2019-02-27T03:47:06.956Z,15.60
2019-02-27T03:49:41.226Z,17.13
2019-02-27T03:52:12.873Z,18.10
2019-02-27T03:55:05.137Z,16.23
2019-02-27T03:57:55.946Z,16.47
2019-02-27T04:00:27.783Z,15.40
2019-02-27T04:02:59.438Z,16.00
2019-02-27T04:05:46.260Z,16.27
2019-02-27T04:08:44.793Z,15.17
2019-02-27T04:11:11.118Z,18.70
2019-02-27T04:13:39.931Z,17.57
2019-02-27T04:16:08.587Z,16.50
2019-02-27T04:18:36.113Z,17.77
2019-02-27T04:21:04.761Z,16.63
2019-02-27T04:23:33.336Z,21.07
2019-02-27T04:26:05.354Z,23.00
2019-02-27T04:28:32.234Z,22.63
2019-02-27T04:31:00.853Z,21.77
2019-02-27T04:33:29.599Z,21.17
2019-02-27T04:35:58.142Z,21.70
2019-02-27T04:38:27.671Z,21.83
2019-02-27T04:40:56.882Z,23.77
2019-02-27T04:43:25.507Z,25.77
2019-02-27T04:45:54.150Z,23.80
2019-02-27T04:48:22.711Z,30.13
2019-02-27T04:50:51.411Z,28.57
2019-02-27T04:53:20.049Z,25.93
2019-02-27T04:55:50.567Z,29.57
2019-02-27T04:58:19.121Z,28.00
2019-02-27T05:00:52.087Z,23.20
2019-02-27T05:03:20.708Z,22.47
2019-02-27T05:05:49.404Z,24.10
2019-02-27T05:08:17.978Z,25.73
2019-02-27T05:10:46.615Z,23.60
2019-02-27T05:13:15.266Z,27.90
2019-02-27T05:15:43.899Z,27.53
2019-02-27T05:18:12.456Z,25.73
2019-02-27T05:20:45.059Z,24.70
2019-02-27T05:23:11.283Z,22.67
2019-02-27T05:25:39.845Z,22.17
2019-02-27T05:28:08.551Z,22.30
2019-02-27T05:30:37.125Z,23.67
2019-02-27T05:33:05.819Z,26.43
2019-02-27T05:35:34.538Z,21.10
2019-02-27T05:38:03.184Z,21.37
2019-02-27T05:40:31.900Z,22.20
2019-02-27T05:43:00.623Z,20.43
2019-02-27T05:45:31.104Z,21.93
2019-02-27T05:47:59.552Z,22.20
2019-02-27T05:50:28.210Z,24.43
2019-02-27T05:52:58.353Z,25.50
2019-02-27T05:55:27.077Z,24.70
2019-02-27T05:57:55.771Z,26.70
2019-02-27T06:00:24.470Z,27.47
2019-02-27T06:02:53.126Z,26.80
2019-02-27T06:05:25.799Z,27.90
2019-02-27T06:07:54.395Z,27.27
2019-02-27T06:10:23.687Z,27.50
2019-02-27T06:12:52.433Z,27.77
2019-02-27T06:15:21.154Z,30.60
2019-02-27T06:17:49.956Z,28.63
2019-02-27T06:20:18.702Z,29.47
2019-02-27T06:22:47.416Z,32.23
2019-02-27T06:25:21.630Z,36.27
2019-02-27T06:27:48.440Z,35.30
2019-02-27T06:30:18.994Z,34.03
2019-02-27T06:32:47.721Z,33.97
2019-02-27T06:35:16.572Z,32.93
2019-02-27T06:37:45.338Z,28.43
2019-02-27T06:40:18.199Z,28.33
2019-02-27T06:42:47.108Z,28.13
2019-02-27T06:45:17.161Z,28.70
2019-02-27T06:47:45.980Z,28.67
2019-02-27T06:50:17.687Z,26.80
2019-02-27T06:52:46.353Z,26.70
2019-02-27T06:55:15.586Z,27.00
2019-02-27T06:57:44.265Z,28.10
2019-02-27T07:00:21.565Z,29.37
2019-02-27T07:02:50.320Z,26.03
2019-02-27T07:05:19.007Z,24.77
2019-02-27T07:07:47.815Z,30.43
2019-02-27T07:10:19.926Z,31.77
2019-02-27T07:12:47.859Z,30.70
2019-02-27T07:15:18.921Z,29.63
2019-02-27T07:17:47.639Z,29.47
2019-02-27T07:20:16.840Z,31.57
2019-02-27T07:22:46.519Z,34.43
2019-02-27T07:25:16.859Z,33.57
2019-02-27T07:27:45.608Z,30.83
2019-02-27T07:30:16.603Z,34.70
2019-02-27T07:32:45.330Z,32.10
2019-02-27T07:35:15.100Z,28.13
2019-02-27T07:37:48.177Z,30.80
2019-02-27T07:40:20.920Z,26.57
2019-02-27T07:42:49.723Z,28.30
2019-02-27T07:45:22.557Z,28.83
2019-02-27T07:47:51.148Z,24.27
2019-02-27T07:50:22.817Z,21.23
2019-02-27T07:52:52.241Z,21.87
2019-02-27T07:55:22.897Z,20.00
2019-02-27T07:57:51.875Z,20.93
2019-02-27T08:00:22.449Z,19.80
2019-02-27T08:02:51.459Z,17.50
2019-02-27T08:05:20.004Z,17.47
2019-02-27T08:07:49.764Z,16.87
2019-02-27T08:10:20.496Z,15.47
2019-02-27T08:12:49.286Z,14.20
2019-02-27T08:15:19.312Z,15.57
2019-02-27T08:17:48.087Z,14.93
2019-02-27T08:20:20.194Z,12.97
2019-02-27T08:22:49.300Z,14.37
2019-02-27T08:25:20.982Z,15.03
2019-02-27T08:27:49.603Z,12.40
2019-02-27T08:30:23.419Z,14.13
2019-02-27T08:32:52.163Z,13.70
2019-02-27T08:35:20.798Z,14.50
2019-02-27T08:37:49.631Z,12.70
2019-02-27T08:40:18.403Z,14.70
2019-02-27T08:42:47.145Z,15.27
2019-02-27T08:45:20.672Z,17.67
2019-02-27T08:47:49.794Z,17.37
2019-02-27T08:50:21.450Z,17.60
2019-02-27T08:52:51.527Z,18.70
2019-02-27T08:55:22.443Z,18.07
2019-02-27T08:57:55.573Z,17.93
2019-02-27T09:00:23.919Z,19.30
2019-02-27T09:02:55.621Z,18.97
2019-02-27T09:05:24.638Z,19.80
2019-02-27T09:07:53.277Z,21.80
2019-02-27T09:10:26.920Z,20.30
2019-02-27T09:13:04.980Z,21.17
2019-02-27T09:15:26.488Z,24.40
2019-02-27T09:17:55.178Z,22.03
2019-02-27T09:20:23.899Z,27.73
2019-02-27T09:22:52.539Z,22.43
2019-02-27T09:25:27.409Z,25.57
2019-02-27T09:27:56.064Z,22.73
2019-02-27T09:30:28.784Z,22.80
2019-02-27T09:32:56.317Z,22.33
2019-02-27T09:35:25.023Z,21.27
2019-02-27T09:37:53.802Z,23.07
2019-02-27T09:40:24.093Z,27.53
2019-02-27T09:42:53.663Z,23.43
2019-02-27T09:45:27.407Z,27.67
2019-02-27T09:47:59.628Z,28.47
2019-02-27T09:50:40.716Z,25.17
2019-02-27T09:53:09.397Z,25.73
2019-02-27T09:55:38.085Z,22.67
2019-02-27T09:58:10.992Z,24.93
2019-02-27T10:00:43.663Z,24.47
2019-02-27T10:03:12.377Z,25.23
2019-02-27T10:05:48.428Z,23.97
2019-02-27T10:08:18.620Z,25.77
2019-02-27T10:10:47.262Z,25.53
2019-02-27T10:13:15.894Z,29.17
2019-02-27T10:15:44.570Z,27.00
2019-02-27T10:18:15.866Z,26.90
2019-02-27T10:20:43.630Z,26.67
2019-02-27T10:23:12.351Z,26.53
2019-02-27T10:25:43.617Z,27.13
2019-02-27T10:28:12.421Z,26.17
2019-02-27T10:30:41.073Z,26.50
2019-02-27T10:33:11.221Z,28.10
2019-02-27T10:35:40.130Z,28.03
2019-02-27T10:38:08.780Z,28.13
2019-02-27T10:40:37.489Z,25.80
2019-02-27T10:43:06.288Z,28.73
2019-02-27T10:45:35.059Z,27.40
2019-02-27T10:48:03.750Z,29.47
2019-02-27T10:50:35.557Z,29.63
2019-02-27T10:53:02.962Z,26.80
2019-02-27T10:55:31.564Z,26.47
2019-02-27T10:58:00.322Z,24.83
2019-02-27T11:00:33.057Z,27.17
2019-02-27T11:03:02.072Z,22.80
2019-02-27T11:05:32.969Z,26.60
2019-02-27T11:08:01.589Z,26.77
2019-02-27T11:10:30.339Z,27.13
2019-02-27T11:12:59.164Z,25.47
2019-02-27T11:15:27.858Z,26.63
2019-02-27T11:17:56.591Z,26.90
2019-02-27T11:20:25.286Z,26.83
2019-02-27T11:22:54.019Z,29.37
2019-02-27T11:25:25.695Z,26.53
2019-02-27T11:27:54.383Z,24.27
2019-02-27T11:30:36.817Z,26.37
2019-02-27T11:33:05.740Z,25.07
2019-02-27T11:35:35.530Z,25.40
2019-02-27T11:38:04.640Z,26.30
2019-02-27T11:40:33.380Z,25.70
2019-02-27T11:43:06.718Z,26.57
2019-02-27T11:45:32.462Z,24.30
2019-02-27T11:48:01.095Z,26.90
2019-02-27T11:50:29.791Z,28.67
2019-02-27T11:53:01.800Z,24.80
2019-02-27T11:55:29.046Z,25.97
2019-02-27T11:57:57.771Z,27.57
2019-02-27T12:00:31.586Z,27.27
2019-02-27T12:03:00.390Z,27.03
2019-02-27T12:05:33.690Z,28.67
2019-02-27T12:07:59.472Z,28.97
2019-02-27T12:10:31.010Z,27.67
2019-02-27T12:13:01.309Z,27.20
2019-02-27T12:15:30.503Z,27.23
2019-02-27T12:18:00.775Z,27.13
2019-02-27T12:20:29.683Z,29.10
2019-02-27T12:22:58.392Z,27.70
2019-02-27T12:25:29.841Z,28.30
2019-02-27T12:27:57.477Z,27.23
2019-02-27T12:30:30.821Z,30.93
2019-02-27T12:32:59.550Z,27.00
2019-02-27T12:35:30.741Z,25.77
2019-02-27T12:37:59.496Z,29.20
2019-02-27T12:40:28.222Z,28.47
2019-02-27T12:42:56.914Z,28.47
2019-02-27T12:45:29.521Z,28.17
2019-02-27T12:47:57.607Z,28.10
2019-02-27T12:50:30.847Z,26.47
2019-02-27T12:52:57.894Z,28.33
2019-02-27T12:55:27.771Z,26.20
2019-02-27T12:57:56.465Z,27.20
2019-02-27T13:00:32.842Z,28.30
2019-02-27T13:03:01.454Z,27.20
2019-02-27T13:05:30.179Z,25.90
2019-02-27T13:07:58.910Z,29.30
2019-02-27T13:10:33.105Z,27.47
2019-02-27T13:12:58.431Z,26.03
2019-02-27T13:15:29.189Z,26.37
2019-02-27T13:17:58.207Z,26.83
2019-02-27T13:20:35.093Z,27.30
2019-02-27T13:23:05.086Z,26.97
2019-02-27T13:25:35.745Z,26.90
2019-02-27T13:28:04.467Z,30.20
2019-02-27T13:30:33.123Z,30.33
2019-02-27T13:33:02.233Z,30.17
2019-02-27T13:35:31.041Z,26.80
2019-02-27T13:37:59.861Z,27.83
2019-02-27T13:40:35.148Z,28.37
2019-02-27T13:43:01.147Z,27.00
2019-02-27T13:45:31.661Z,30.37
2019-02-27T13:48:04.808Z,29.03
2019-02-27T13:50:30.922Z,29.83
2019-02-27T13:52:59.636Z,29.17
2019-02-27T13:55:28.393Z,28.70
2019-02-27T13:57:59.212Z,31.73
2019-02-27T14:00:31.503Z,35.43
2019-02-27T14:03:00.221Z,31.27
2019-02-27T14:05:29.601Z,30.50
2019-02-27T14:07:58.819Z,29.13
2019-02-27T14:10:29.744Z,30.87
2019-02-27T14:12:58.469Z,28.67
2019-02-27T14:15:28.175Z,29.90
2019-02-27T14:17:57.004Z,31.53
2019-02-27T14:20:27.097Z,32.70
2019-02-27T14:22:56.077Z,33.70
2019-02-27T14:25:33.263Z,33.20
2019-02-27T14:28:04.114Z,38.00
2019-02-27T14:30:50.613Z,36.00
2019-02-27T14:33:19.553Z,35.83
2019-02-27T14:35:49.197Z,36.53
2019-02-27T14:38:17.857Z,34.20
2019-02-27T14:40:46.562Z,37.10
2019-02-27T14:43:15.293Z,35.33
2019-02-27T14:45:43.850Z,34.60
2019-02-27T14:48:12.546Z,37.67
2019-02-27T14:50:41.313Z,32.37
2019-02-27T14:53:10.019Z,35.60
2019-02-27T14:55:38.719Z,37.77
2019-02-27T14:58:07.379Z,36.53
2019-02-27T15:00:40.864Z,35.17
2019-02-27T15:03:07.921Z,34.77
2019-02-27T15:05:37.267Z,37.17
2019-02-27T15:08:07.046Z,37.17
2019-02-27T15:10:40.079Z,38.30
2019-02-27T15:13:06.041Z,37.30
2019-02-27T15:15:34.750Z,34.27
2019-02-27T15:18:05.680Z,38.43
2019-02-27T15:20:34.708Z,39.90
2019-02-27T15:23:03.576Z,37.87
2019-02-27T15:25:32.216Z,34.10
2019-02-27T15:28:00.840Z,39.43
2019-02-27T15:30:33.563Z,34.77
2019-02-27T15:33:04.901Z,37.60
2019-02-27T15:35:32.637Z,36.47
2019-02-27T15:38:01.440Z,36.47
2019-02-27T15:40:30.871Z,37.80
2019-02-27T15:43:01.170Z,35.60
2019-02-27T15:45:29.911Z,39.93
2019-02-27T15:47:58.684Z,36.00
2019-02-27T15:50:29.580Z,40.10
2019-02-27T15:52:58.286Z,37.53
2019-02-27T15:55:27.002Z,38.20
2019-02-27T15:57:55.774Z,35.97
2019-02-27T16:00:28.237Z,35.57
2019-02-27T16:02:56.922Z,34.67
2019-02-27T16:05:30.097Z,38.63
2019-02-27T16:07:55.940Z,37.70
2019-02-27T16:10:30.584Z,36.60
2019-02-27T16:13:00.987Z,37.00
2019-02-27T16:15:29.557Z,33.43
2019-02-27T16:17:58.194Z,35.00
2019-02-27T16:20:28.059Z,35.00
2019-02-27T16:22:56.778Z,34.80
2019-02-27T16:25:26.473Z,34.23
2019-02-27T16:27:56.611Z,32.37
2019-02-27T16:30:37.063Z,31.70
2019-02-27T16:33:07.007Z,32.53
2019-02-27T16:35:41.556Z,29.90
2019-02-27T16:38:06.194Z,32.67
2019-02-27T16:40:34.736Z,35.83
2019-02-27T16:43:03.373Z,32.57
2019-02-27T16:45:40.811Z,34.43
2019-02-27T16:48:11.187Z,37.33
2019-02-27T16:50:39.696Z,35.27
2019-02-27T16:53:08.394Z,36.53
2019-02-27T16:55:38.103Z,37.53
2019-02-27T16:58:07.432Z,37.17
2019-02-27T17:00:38.128Z,37.43
2019-02-27T17:03:06.854Z,40.93
2019-02-27T17:05:35.514Z,37.37
2019-02-27T17:08:04.207Z,38.70
2019-02-27T17:10:35.161Z,42.07
2019-02-27T17:13:03.930Z,31.10
2019-02-27T17:15:35.757Z,33.07
2019-02-27T17:18:03.043Z,34.00
2019-02-27T17:20:31.775Z,30.17
2019-02-27T17:23:00.485Z,28.80
2019-02-27T17:25:30.223Z,30.50
2019-02-27T17:27:59.253Z,29.03
2019-02-27T17:30:36.659Z,30.53
2019-02-27T17:33:04.255Z,28.47
2019-02-27T17:35:36.473Z,29.17
2019-02-27T17:38:05.195Z,28.00
2019-02-27T17:40:36.916Z,28.70
2019-02-27T17:43:06.507Z,27.10
2019-02-27T17:45:34.502Z,24.43
2019-02-27T17:48:09.386Z,25.93
2019-02-27T17:50:38.153Z,25.30
2019-02-27T17:53:06.814Z,27.10
2019-02-27T17:55:38.130Z,27.43
2019-02-27T17:58:06.206Z,27.63
2019-02-27T18:00:49.985Z,27.00
2019-02-27T18:03:17.688Z,26.47
2019-02-27T18:05:47.978Z,26.83
2019-02-27T18:08:17.183Z,27.50
2019-02-27T18:10:46.175Z,27.30
2019-02-27T18:13:15.079Z,25.70
2019-02-27T18:15:44.201Z,27.50
2019-02-27T18:18:12.995Z,26.87
2019-02-27T18:20:41.569Z,26.40
2019-02-27T18:23:13.477Z,26.33
2019-02-27T18:25:45.426Z,26.30
2019-02-27T18:28:14.128Z,28.10
2019-02-27T18:30:42.834Z,27.73
2019-02-27T18:33:14.268Z,28.27
2019-02-27T18:35:41.975Z,28.40
2019-02-27T18:38:11.039Z,29.27
2019-02-27T18:40:42.748Z,26.00
2019-02-27T18:43:09.949Z,25.43
2019-02-27T18:45:39.096Z,26.73
2019-02-27T18:48:10.095Z,26.80
2019-02-27T18:50:38.039Z,28.27
2019-02-27T18:53:07.553Z,27.53
2019-02-27T18:55:36.313Z,25.57
2019-02-27T18:58:05.235Z,26.93
2019-02-27T19:00:36.252Z,27.13
2019-02-27T19:03:07.737Z,26.87
2019-02-27T19:05:38.201Z,28.03
2019-02-27T19:08:07.112Z,27.27
2019-02-27T19:10:41.305Z,26.33
2019-02-27T19:13:06.320Z,26.47
2019-02-27T19:15:35.213Z,27.33
2019-02-27T19:18:06.538Z,24.03
2019-02-27T19:20:45.917Z,24.67
2019-02-27T19:23:17.724Z,26.97
2019-02-27T19:25:45.099Z,27.17
2019-02-27T19:28:13.796Z,28.37
2019-02-27T19:30:43.989Z,27.43
2019-02-27T19:33:12.792Z,28.70
2019-02-27T19:35:41.754Z,26.53
2019-02-27T19:38:12.897Z,29.63
2019-02-27T19:40:40.908Z,28.07
2019-02-27T19:43:09.665Z,30.47
2019-02-27T19:45:38.378Z,26.77
2019-02-27T19:48:07.108Z,30.27
2019-02-27T19:50:35.831Z,26.90
2019-02-27T19:53:06.918Z,28.70
2019-02-27T19:55:34.916Z,26.17
2019-02-27T19:58:03.659Z,28.77
2019-02-27T20:00:34.892Z,27.47
2019-02-27T20:03:04.418Z,27.63
2019-02-27T20:05:33.166Z,27.30
2019-02-27T20:08:02.571Z,25.40
2019-02-27T20:10:33.205Z,26.57
2019-02-27T20:13:01.767Z,27.93
2019-02-27T20:15:30.462Z,25.77
2019-02-27T20:17:59.387Z,28.90
2019-02-27T20:20:29.957Z,27.20
2019-02-27T20:22:58.691Z,27.10
2019-02-27T20:25:29.849Z,28.73
2019-02-27T20:28:07.885Z,25.83
2019-02-27T20:30:38.360Z,24.90
2019-02-27T20:33:07.028Z,25.27
2019-02-27T20:35:35.704Z,26.77
2019-02-27T20:38:04.406Z,27.23
2019-02-27T20:40:34.175Z,28.10
2019-02-27T20:43:03.486Z,27.53
2019-02-27T20:45:32.198Z,27.90
2019-02-27T20:48:01.947Z,28.63
2019-02-27T20:50:39.072Z,26.73
2019-02-27T20:53:09.535Z,26.00
2019-02-27T20:55:38.181Z,27.27
2019-02-27T20:58:06.932Z,25.00
2019-02-27T21:00:36.538Z,27.50
2019-02-27T21:03:06.176Z,24.43
2019-02-27T21:05:34.900Z,27.27
2019-02-27T21:08:03.644Z,27.57
2019-02-27T21:10:33.324Z,26.03
2019-02-27T21:13:02.071Z,28.20
2019-02-27T21:15:32.536Z,28.90
2019-02-27T21:18:01.211Z,25.33
2019-02-27T21:20:29.858Z,25.53
2019-02-27T21:22:59.877Z,26.07
2019-02-27T21:25:29.069Z,26.17
2019-02-27T21:27:57.696Z,26.17
2019-02-27T21:30:26.727Z,24.80
2019-02-27T21:32:55.369Z,21.77
2019-02-27T21:35:28.845Z,22.83
2019-02-27T21:37:54.753Z,22.47
2019-02-27T21:40:23.478Z,23.17
2019-02-27T21:42:52.252Z,23.93
2019-02-27T21:45:22.235Z,20.73
2019-02-27T21:47:51.896Z,22.97
2019-02-27T21:50:24.585Z,22.27
2019-02-27T21:52:54.380Z,25.53
2019-02-27T21:55:23.288Z,24.57
2019-02-27T21:57:52.136Z,24.23
2019-02-27T22:00:29.279Z,20.87
2019-02-27T22:03:03.712Z,24.37
2019-02-27T22:05:29.200Z,24.97
2019-02-27T22:07:57.872Z,23.43
2019-02-27T22:10:26.625Z,25.60
2019-02-27T22:12:55.351Z,25.10
2019-02-27T22:15:30.965Z,21.40
2019-02-27T22:17:59.690Z,21.63
2019-02-27T22:20:28.410Z,23.67
2019-02-27T22:22:57.139Z,24.10
2019-02-27T22:25:30.245Z,22.40
2019-02-27T22:27:58.383Z,23.67
2019-02-27T22:30:26.482Z,22.47
2019-02-27T22:32:55.147Z,22.13
2019-02-27T22:35:23.869Z,23.17
2019-02-27T22:37:52.935Z,23.63
2019-02-27T22:40:26.901Z,21.97
2019-02-27T22:42:55.814Z,19.73
2019-02-27T22:45:24.506Z,21.37
2019-02-27T22:47:54.036Z,21.97
2019-02-27T22:50:23.286Z,20.60
2019-02-27T22:52:54.750Z,20.10
2019-02-27T22:55:23.761Z,21.60
2019-02-27T22:57:54.733Z,21.10
2019-02-27T23:00:51.067Z,21.60
2019-02-27T23:03:27.709Z,18.63
2019-02-27T23:05:56.458Z,20.57
2019-02-27T23:08:25.377Z,20.53
2019-02-27T23:10:54.078Z,21.57
2019-02-27T23:13:22.839Z,21.13
2019-02-27T23:15:52.087Z,22.20
2019-02-27T23:18:20.735Z,21.90
2019-02-27T23:20:52.493Z,21.80
2019-02-27T23:23:24.212Z,20.87
2019-02-27T23:25:54.391Z,20.43
2019-02-27T23:28:23.011Z,23.13
2019-02-27T23:30:51.678Z,20.63
2019-02-27T23:33:20.593Z,20.90
2019-02-27T23:35:50.259Z,21.30
2019-02-27T23:38:19.578Z,21.53
2019-02-27T23:40:50.004Z,19.00
2019-02-27T23:43:19.783Z,20.27
2019-02-27T23:45:48.650Z,21.37
2019-02-27T23:48:17.378Z,19.17
2019-02-27T23:50:46.076Z,21.60
2019-02-27T23:53:15.240Z,21.23
2019-02-27T23:55:48.050Z,21.90
2019-02-27T23:58:16.652Z,21.67
